createdAt,value
2022-09-18T00:00:05.476Z,99488.20
2022-09-18T00:03:04.857Z,99486.85
2022-09-18T00:05:38.269Z,99469.83
2022-09-18T00:08:10.941Z,99482.17
2022-09-18T00:10:48.524Z,99487.84
2022-09-18T00:13:20.653Z,99483.70
2022-09-18T00:15:58.315Z,99485.69
2022-09-18T00:18:30.527Z,99480.59
2022-09-18T00:21:07.879Z,99477.39
2022-09-18T00:23:40.818Z,99471.42
2022-09-18T00:26:16.377Z,99469.52
2022-09-18T00:28:48.658Z,99470.64
2022-09-18T00:31:25.633Z,99470.80
2022-09-18T00:33:59.008Z,99467.55
2022-09-18T00:36:31.684Z,99468.99
2022-09-18T00:39:05.327Z,99470.02
2022-09-18T00:41:39.160Z,99468.05
2022-09-18T00:44:35.670Z,99455.17
2022-09-18T00:47:18.396Z,99469.33
2022-09-18T00:49:56.228Z,99454.55
2022-09-18T00:52:30.864Z,99463.70
2022-09-18T00:55:07.586Z,99469.73
2022-09-18T00:57:43.155Z,99471.33
2022-09-18T01:00:16.529Z,99472.85
2022-09-18T01:02:49.911Z,99471.37
2022-09-18T01:05:32.726Z,99474.54
2022-09-18T01:08:22.255Z,99470.98
2022-09-18T01:11:10.176Z,99469.61
2022-09-18T01:13:54.414Z,99468.89
2022-09-18T01:16:35.333Z,99464.36
2022-09-18T01:19:21.361Z,99459.66
2022-09-18T01:22:01.906Z,99458.08
2022-09-18T01:24:47.189Z,99451.71
2022-09-18T01:27:24.323Z,99450.67
2022-09-18T01:30:01.553Z,99455.59
2022-09-18T01:32:36.887Z,99449.15
2022-09-18T01:35:39.453Z,99452.73
2022-09-18T01:38:14.757Z,99430.72
2022-09-18T01:40:53.180Z,99456.56
2022-09-18T01:43:29.106Z,99459.05
2022-09-18T01:46:08.346Z,99460.16
2022-09-18T01:48:47.164Z,99460.63
2022-09-18T01:51:23.987Z,99458.25
2022-09-18T01:54:00.765Z,99460.79
2022-09-18T01:56:36.657Z,99458.89
2022-09-18T01:59:12.780Z,99457.06
2022-09-18T02:01:58.377Z,99455.46
2022-09-18T02:04:37.302Z,99461.20
2022-09-18T02:07:14.719Z,99461.83
2022-09-18T02:09:47.721Z,99458.16
2022-09-18T02:12:23.309Z,99460.56
2022-09-18T02:15:00.479Z,99457.14
2022-09-18T02:18:01.318Z,99449.11
2022-09-18T02:20:43.419Z,99451.96
2022-09-18T02:23:17.458Z,99449.66
2022-09-18T02:25:53.961Z,99448.88
2022-09-18T02:28:28.387Z,99449.98
2022-09-18T02:31:00.507Z,99450.86
2022-09-18T02:33:34.450Z,99447.35
2022-09-18T02:36:33.164Z,99443.79
2022-09-18T02:39:21.092Z,99441.71
2022-09-18T02:42:04.043Z,99443.54
2022-09-18T02:44:44.656Z,99445.13
2022-09-18T02:47:30.794Z,99441.39
2022-09-18T02:50:13.056Z,99428.52
2022-09-18T02:52:53.152Z,99437.88
2022-09-18T02:55:30.014Z,99438.91
2022-09-18T02:58:06.883Z,99435.98
2022-09-18T03:00:42.692Z,99439.09
2022-09-18T03:03:19.188Z,99442.11
2022-09-18T03:06:00.471Z,99425.02
2022-09-18T03:08:32.879Z,99441.31
2022-09-18T03:11:05.506Z,99445.20
2022-09-18T03:13:38.030Z,99446.00
2022-09-18T03:16:10.379Z,99444.89
2022-09-18T03:18:42.811Z,99444.02
2022-09-18T03:21:15.321Z,99445.53
2022-09-18T03:23:48.143Z,99448.55
2022-09-18T03:26:24.116Z,99430.50
2022-09-18T03:28:56.203Z,99419.36
2022-09-18T03:31:30.433Z,99448.31
2022-09-18T03:34:06.064Z,99450.38
2022-09-18T03:36:38.381Z,99442.19
2022-09-18T03:39:12.019Z,99447.92
2022-09-18T03:41:44.336Z,99447.13
2022-09-18T03:44:17.803Z,99453.00
2022-09-18T03:46:51.215Z,99450.46
2022-09-18T03:49:25.670Z,99450.15
2022-09-18T03:51:57.995Z,99446.09
2022-09-18T03:54:33.668Z,99447.44
2022-09-18T03:57:24.261Z,99446.16
2022-09-18T04:00:05.289Z,99441.95
2022-09-18T04:02:51.004Z,99446.40
2022-09-18T04:05:52.337Z,99449.42
2022-09-18T04:08:24.344Z,99454.45
2022-09-18T04:11:05.782Z,99452.44
2022-09-18T04:13:38.530Z,99455.08
2022-09-18T04:16:13.390Z,99453.40
2022-09-18T04:18:45.778Z,99452.84
2022-09-18T04:21:17.872Z,99450.45
2022-09-18T04:23:50.529Z,99449.73
2022-09-18T04:26:26.418Z,99451.73
2022-09-18T04:29:01.398Z,99451.49
2022-09-18T04:31:35.329Z,99455.61
2022-09-18T04:34:08.577Z,99458.71
2022-09-18T04:36:41.024Z,99462.43
2022-09-18T04:39:13.791Z,99461.58
2022-09-18T04:41:46.965Z,99461.42
2022-09-18T04:44:19.299Z,99445.34
2022-09-18T04:46:52.077Z,99458.77
2022-09-18T04:49:24.418Z,99459.90
2022-09-18T04:51:56.552Z,99462.36
2022-09-18T04:54:29.632Z,99458.80
2022-09-18T04:57:02.420Z,99462.55
2022-09-18T04:59:35.171Z,99459.91
2022-09-18T05:02:07.781Z,99450.77
2022-09-18T05:04:40.094Z,99459.19
2022-09-18T05:07:19.129Z,99462.98
2022-09-18T05:09:51.746Z,99463.80
2022-09-18T05:12:24.284Z,99462.83
2022-09-18T05:14:56.606Z,99462.18
2022-09-18T05:17:29.882Z,99464.65
2022-09-18T05:20:07.845Z,99467.27
2022-09-18T05:22:47.459Z,99461.20
2022-09-18T05:25:27.410Z,99462.73
2022-09-18T05:28:01.887Z,99460.64
2022-09-18T05:30:38.449Z,99458.09
2022-09-18T05:33:12.096Z,99458.42
2022-09-18T05:35:45.297Z,99457.52
2022-09-18T05:38:17.276Z,99458.77
2022-09-18T05:40:49.717Z,99455.54
2022-09-18T05:43:21.993Z,99458.84
2022-09-18T05:45:54.623Z,99445.48
2022-09-18T05:48:32.602Z,99459.08
2022-09-18T05:51:05.327Z,99465.77
2022-09-18T05:53:37.994Z,99464.98
2022-09-18T05:56:24.525Z,99466.31
2022-09-18T05:58:57.328Z,99464.88
2022-09-18T06:01:30.383Z,99466.30
2022-09-18T06:04:13.946Z,99466.05
2022-09-18T06:07:03.369Z,99464.71
2022-09-18T06:09:36.021Z,99471.47
2022-09-18T06:12:08.687Z,99472.05
2022-09-18T06:14:40.985Z,99475.89
2022-09-18T06:17:13.096Z,99483.73
2022-09-18T06:19:45.822Z,99483.25
2022-09-18T06:22:19.116Z,99478.22
2022-09-18T06:24:51.181Z,99481.64
2022-09-18T06:27:28.463Z,99479.87
2022-09-18T06:30:00.812Z,99469.76
2022-09-18T06:32:37.031Z,99481.59
2022-09-18T06:35:11.609Z,99485.55
2022-09-18T06:37:42.241Z,99485.44
2022-09-18T06:40:18.986Z,99481.53
2022-09-18T06:43:11.808Z,99481.83
2022-09-18T06:46:01.969Z,99480.02
2022-09-18T06:48:40.841Z,99476.20
2022-09-18T06:51:13.584Z,99478.09
2022-09-18T06:54:05.456Z,99477.68
2022-09-18T06:56:37.865Z,99480.96
2022-09-18T06:59:14.571Z,99482.73
2022-09-18T07:01:48.696Z,99484.89
2022-09-18T07:04:25.129Z,99484.27
2022-09-18T07:06:57.121Z,99487.13
2022-09-18T07:09:32.748Z,99486.19
2022-09-18T07:12:11.390Z,99484.98
2022-09-18T07:14:53.830Z,99487.96
2022-09-18T07:17:26.726Z,99491.02
2022-09-18T07:20:01.013Z,99490.31
2022-09-18T07:22:47.214Z,99487.79
2022-09-18T07:25:19.864Z,99482.80
2022-09-18T07:27:53.137Z,99499.73
2022-09-18T07:30:25.874Z,99476.75
2022-09-18T07:32:58.214Z,99496.09
2022-09-18T07:35:32.889Z,99487.34
2022-09-18T07:38:09.735Z,99494.45
2022-09-18T07:40:52.740Z,99490.76
2022-09-18T07:43:40.372Z,99489.66
2022-09-18T07:46:12.473Z,99495.83
2022-09-18T07:48:44.801Z,99498.45
2022-09-18T07:51:27.862Z,99495.63
2022-09-18T07:54:01.573Z,99499.98
2022-09-18T07:56:50.056Z,99502.35
2022-09-18T07:59:25.592Z,99502.59
2022-09-18T08:02:02.343Z,99507.86
2022-09-18T08:04:37.279Z,99507.65
2022-09-18T08:07:18.932Z,99513.05
2022-09-18T08:10:14.450Z,99509.88
2022-09-18T08:12:57.335Z,99511.30
2022-09-18T08:15:49.019Z,99517.46
2022-09-18T08:18:40.028Z,99499.73
2022-09-18T08:21:35.792Z,99516.41
2022-09-18T08:24:14.102Z,99510.05
2022-09-18T08:26:46.660Z,99512.89
2022-09-18T08:29:20.064Z,99512.86
2022-09-18T08:32:06.535Z,99511.99
2022-09-18T08:34:41.982Z,99518.27
2022-09-18T08:37:16.083Z,99519.45
2022-09-18T08:40:10.762Z,99518.38
2022-09-18T08:43:00.761Z,99522.09
2022-09-18T08:45:46.103Z,99519.08
2022-09-18T08:48:22.488Z,99520.68
2022-09-18T08:50:59.936Z,99518.06
2022-09-18T08:53:37.662Z,99519.20
2022-09-18T08:56:30.204Z,99521.86
2022-09-18T08:59:36.828Z,99522.66
2022-09-18T09:02:25.453Z,99519.89
2022-09-18T09:05:03.825Z,99522.13
2022-09-18T09:07:51.570Z,99528.98
2022-09-18T09:10:39.160Z,99531.30
2022-09-18T09:13:39.135Z,99535.38
2022-09-18T09:16:18.131Z,99529.41
2022-09-18T09:19:01.365Z,99528.97
2022-09-18T09:21:52.305Z,99533.89
2022-09-18T09:24:35.793Z,99533.39
2022-09-18T09:27:21.000Z,99534.95
2022-09-18T09:30:17.865Z,99537.13
2022-09-18T09:33:17.607Z,99547.91
2022-09-18T09:36:09.466Z,99545.01
2022-09-18T09:38:55.597Z,99545.23
2022-09-18T09:41:36.190Z,99526.44
2022-09-18T09:44:32.633Z,99559.33
2022-09-18T09:47:15.766Z,99561.63
2022-09-18T09:50:01.332Z,99561.50
2022-09-18T09:52:33.823Z,99569.27
2022-09-18T09:55:22.192Z,99569.41
2022-09-18T09:58:15.791Z,99567.33
2022-09-18T10:00:58.256Z,99558.58
2022-09-18T10:03:42.442Z,99566.62
2022-09-18T10:06:32.863Z,99568.22
2022-09-18T10:09:11.272Z,99561.59
2022-09-18T10:11:49.239Z,99573.98
2022-09-18T10:14:26.550Z,99585.61
2022-09-18T10:17:00.570Z,99582.13
2022-09-18T10:19:39.306Z,99588.92
2022-09-18T10:22:15.923Z,99587.69
2022-09-18T10:24:55.668Z,99588.42
2022-09-18T10:27:29.783Z,99602.33
2022-09-18T10:30:05.759Z,99600.39
2022-09-18T10:32:47.766Z,99612.93
2022-09-18T10:35:43.711Z,99615.14
2022-09-18T10:38:39.852Z,99616.41
2022-09-18T10:41:34.402Z,99623.56
2022-09-18T10:44:28.253Z,99621.61
2022-09-18T10:47:09.967Z,99621.58
2022-09-18T10:49:53.046Z,99625.96
2022-09-18T10:52:32.746Z,99631.48
2022-09-18T10:55:19.499Z,99614.91
2022-09-18T10:58:15.629Z,99631.50
2022-09-18T11:00:57.602Z,99630.88
2022-09-18T11:03:49.791Z,99632.95
2022-09-18T11:06:32.282Z,99624.64
2022-09-18T11:09:12.828Z,99629.41
2022-09-18T11:11:51.529Z,99631.40
2022-09-18T11:14:29.788Z,99632.50
2022-09-18T11:17:08.707Z,99630.20
2022-09-18T11:19:50.155Z,99629.85
2022-09-18T11:22:38.778Z,99626.05
2022-09-18T11:25:23.550Z,99628.54
2022-09-18T11:28:00.048Z,99626.42
2022-09-18T11:30:39.020Z,99623.45
2022-09-18T11:33:21.756Z,99620.92
2022-09-18T11:36:01.235Z,99622.70
2022-09-18T11:38:39.622Z,99619.71
2022-09-18T11:41:13.617Z,99621.08
2022-09-18T11:44:01.047Z,99618.56
2022-09-18T11:46:47.667Z,99622.75
2022-09-18T11:49:25.027Z,99618.11
2022-09-18T11:52:02.141Z,99620.34
2022-09-18T11:54:51.652Z,99616.06
2022-09-18T11:57:27.171Z,99613.36
2022-09-18T12:00:06.688Z,99613.13
2022-09-18T12:02:58.556Z,99611.59
2022-09-18T12:05:35.340Z,99605.38
2022-09-18T12:08:16.207Z,99603.10
2022-09-18T12:11:04.562Z,99606.16
2022-09-18T12:13:48.695Z,99598.33
2022-09-18T12:16:28.499Z,99599.81
2022-09-18T12:19:04.557Z,99592.86
2022-09-18T12:21:45.979Z,99581.45
2022-09-18T12:24:19.093Z,99588.71
2022-09-18T12:27:12.062Z,99584.84
2022-09-18T12:30:01.182Z,99586.96
2022-09-18T12:32:54.266Z,99573.89
2022-09-18T12:35:38.966Z,99598.20
2022-09-18T12:38:17.058Z,99591.09
2022-09-18T12:41:08.441Z,99587.29
2022-09-18T12:44:02.846Z,99591.56
2022-09-18T12:46:46.846Z,99581.48
2022-09-18T12:49:40.075Z,99581.11
2022-09-18T12:52:27.458Z,99579.23
2022-09-18T12:55:36.639Z,99580.66
2022-09-18T12:58:20.651Z,99581.66
2022-09-18T13:00:54.540Z,99580.27
2022-09-18T13:03:33.394Z,99581.15
2022-09-18T13:06:11.051Z,99579.98
2022-09-18T13:08:48.054Z,99574.63
2022-09-18T13:11:26.229Z,99576.67
2022-09-18T13:14:04.714Z,99564.80
2022-09-18T13:16:42.237Z,99569.90
2022-09-18T13:19:19.741Z,99583.38
2022-09-18T13:21:52.746Z,99582.91
2022-09-18T13:24:29.720Z,99587.30
2022-09-18T13:27:03.521Z,99588.05
2022-09-18T13:29:59.112Z,99586.08
2022-09-18T13:32:42.948Z,99579.84
2022-09-18T13:35:25.496Z,99587.09
2022-09-18T13:38:17.691Z,99580.82
2022-09-18T13:40:57.878Z,99581.84
2022-09-18T13:43:47.036Z,99584.40
2022-09-18T13:46:34.607Z,99579.75
2022-09-18T13:49:20.448Z,99581.67
2022-09-18T13:51:52.763Z,99582.91
2022-09-18T13:54:28.948Z,99585.80
2022-09-18T13:57:21.453Z,99583.08
2022-09-18T14:00:01.803Z,99550.77
2022-09-18T14:02:44.487Z,99578.50
2022-09-18T14:05:31.858Z,99580.05
2022-09-18T14:08:14.538Z,99574.69
2022-09-18T14:11:16.971Z,99571.99
2022-09-18T14:13:55.611Z,99577.46
2022-09-18T14:16:31.991Z,99578.80
2022-09-18T14:19:08.453Z,99574.80
2022-09-18T14:21:45.604Z,99576.02
2022-09-18T14:24:38.939Z,99571.06
2022-09-18T14:27:31.180Z,99582.67
2022-09-18T14:30:14.461Z,99576.02
2022-09-18T14:32:57.121Z,99570.55
2022-09-18T14:35:38.158Z,99573.98
2022-09-18T14:38:25.086Z,99581.80
2022-09-18T14:41:00.603Z,99575.12
2022-09-18T14:43:33.023Z,99579.02
2022-09-18T14:46:06.816Z,99572.30
2022-09-18T14:48:40.449Z,99576.30
2022-09-18T14:51:22.633Z,99580.27
2022-09-18T14:58:42.796Z,99575.52
2022-09-18T15:03:33.984Z,99573.98
2022-09-18T15:06:35.209Z,99560.16
2022-09-18T15:12:59.436Z,99577.05
2022-09-18T15:15:34.771Z,99580.15
2022-09-18T15:18:23.847Z,99584.70
2022-09-18T15:20:57.323Z,99585.30
2022-09-18T15:23:31.848Z,99588.61
2022-09-18T15:26:07.027Z,99596.73
2022-09-18T15:28:42.211Z,99601.30
2022-09-18T15:31:16.170Z,99603.30
2022-09-18T15:33:55.161Z,99610.53
2022-09-18T15:36:31.939Z,99600.95
2022-09-18T15:39:05.874Z,99600.70
2022-09-18T15:41:43.135Z,99597.38
2022-09-18T15:44:46.309Z,99596.05
2022-09-18T15:47:37.127Z,99600.79
2022-09-18T15:50:34.075Z,99591.31
2022-09-18T15:53:24.204Z,99595.70
2022-09-18T15:56:00.163Z,99592.02
2022-09-18T15:58:58.008Z,99589.36
2022-09-18T16:01:35.535Z,99589.78
2022-09-18T16:04:17.176Z,99561.33
2022-09-18T16:06:56.049Z,99588.06
2022-09-18T16:09:36.836Z,99586.12
2022-09-18T16:12:35.717Z,99573.81
2022-09-18T16:15:25.602Z,99585.55
2022-09-18T16:18:04.158Z,99577.19
2022-09-18T16:21:01.592Z,99586.65
2022-09-18T16:23:35.387Z,99551.42
2022-09-18T16:26:10.641Z,99590.41
2022-09-18T16:28:46.207Z,99592.63
2022-09-18T16:31:21.221Z,99598.08
2022-09-18T16:33:57.422Z,99596.08
2022-09-18T16:36:34.244Z,99597.20
2022-09-18T16:39:08.789Z,99600.84
2022-09-18T16:41:40.869Z,99599.32
2022-09-18T16:44:15.483Z,99601.85
2022-09-18T16:46:50.974Z,99606.30
2022-09-18T16:49:27.082Z,99610.34
2022-09-18T16:51:59.777Z,99614.56
2022-09-18T16:54:32.041Z,99612.22
2022-09-18T16:57:07.783Z,99615.36
2022-09-18T16:59:43.663Z,99613.50
2022-09-18T17:02:19.255Z,99608.73
2022-09-18T17:04:51.533Z,99609.73
2022-09-18T17:07:23.709Z,99608.73
2022-09-18T17:09:56.338Z,99604.83
2022-09-18T17:12:29.339Z,99605.09
2022-09-18T17:15:01.594Z,99609.89
2022-09-18T17:17:34.244Z,99605.02
2022-09-18T17:20:08.246Z,99600.04
2022-09-18T17:22:41.546Z,99610.67
2022-09-18T17:25:14.667Z,99611.16
2022-09-18T17:27:47.980Z,99615.51
2022-09-18T17:30:20.419Z,99625.05
2022-09-18T17:32:52.918Z,99626.34
2022-09-18T17:35:25.916Z,99627.39
2022-09-18T17:37:59.083Z,99630.10
2022-09-18T17:40:31.375Z,99634.86
2022-09-18T17:43:03.976Z,99636.36
2022-09-18T17:45:36.345Z,99634.85
2022-09-18T17:48:09.212Z,99631.70
2022-09-18T17:50:41.632Z,99635.18
2022-09-18T17:53:14.463Z,99633.88
2022-09-18T17:55:51.127Z,99633.82
2022-09-18T17:58:23.219Z,99635.97
2022-09-18T18:00:56.117Z,99636.05
2022-09-18T18:03:31.099Z,99633.52
2022-09-18T18:06:03.555Z,99630.90
2022-09-18T18:08:35.513Z,99631.34
2022-09-18T18:11:09.869Z,99635.90
2022-09-18T18:13:43.613Z,99626.91
2022-09-18T18:16:23.496Z,99633.25
2022-09-18T18:18:58.018Z,99632.78
2022-09-18T18:21:31.351Z,99632.08
2022-09-18T18:24:06.246Z,99634.35
2022-09-18T18:26:39.569Z,99632.61
2022-09-18T18:29:17.908Z,99635.02
2022-09-18T18:31:51.790Z,99635.27
2022-09-18T18:34:25.366Z,99635.10
2022-09-18T18:36:57.640Z,99635.83
2022-09-18T18:39:29.895Z,99637.27
2022-09-18T18:42:02.087Z,99634.00
2022-09-18T18:44:34.554Z,99635.55
2022-09-18T18:47:07.022Z,99635.22
2022-09-18T18:49:40.154Z,99639.69
2022-09-18T18:52:12.903Z,99636.04
2022-09-18T18:54:45.972Z,99632.47
2022-09-18T18:57:18.063Z,99631.13
2022-09-18T18:59:50.875Z,99629.86
2022-09-18T19:02:23.137Z,99630.02
2022-09-18T19:05:02.217Z,99629.55
2022-09-18T19:07:34.781Z,99630.91
2022-09-18T19:10:07.734Z,99632.90
2022-09-18T19:12:40.097Z,99635.54
2022-09-18T19:15:13.049Z,99635.05
2022-09-18T19:17:46.470Z,99630.12
2022-09-18T19:20:19.461Z,99633.55
2022-09-18T19:22:56.917Z,99630.52
2022-09-18T19:25:30.279Z,99631.96
2022-09-18T19:28:02.475Z,99634.10
2022-09-18T19:30:38.691Z,99633.16
2022-09-18T19:33:16.085Z,99637.77
2022-09-18T19:35:51.466Z,99642.48
2022-09-18T19:38:23.609Z,99646.79
2022-09-18T19:40:56.064Z,99643.90
2022-09-18T19:43:32.514Z,99644.77
2022-09-18T19:46:05.384Z,99640.00
2022-09-18T19:48:37.879Z,99643.96
2022-09-18T19:51:10.399Z,99641.04
2022-09-18T19:53:42.623Z,99643.02
2022-09-18T19:56:33.388Z,99643.10
2022-09-18T19:59:10.206Z,99642.86
2022-09-18T20:01:42.497Z,99641.05
2022-09-18T20:04:14.732Z,99645.42
2022-09-18T20:06:47.248Z,99645.09
2022-09-18T20:09:19.469Z,99642.45
2022-09-18T20:11:51.516Z,99633.14
2022-09-18T20:14:24.305Z,99644.84
2022-09-18T20:16:57.700Z,99642.05
2022-09-18T20:19:30.830Z,99635.67
2022-09-18T20:22:03.069Z,99635.60
2022-09-18T20:24:35.940Z,99635.36
2022-09-18T20:27:08.407Z,99634.33
2022-09-18T20:29:41.336Z,99633.36
2022-09-18T20:32:13.454Z,99635.28
2022-09-18T20:34:47.874Z,99637.90
2022-09-18T20:37:20.182Z,99626.52
2022-09-18T20:39:52.815Z,99643.56
2022-09-18T20:42:25.790Z,99646.98
2022-09-18T20:45:02.444Z,99644.11
2022-09-18T20:47:36.372Z,99639.50
2022-09-18T20:50:11.771Z,99642.05
2022-09-18T20:52:45.404Z,99643.08
2022-09-18T20:55:18.726Z,99644.91
2022-09-18T20:57:51.545Z,99644.77
2022-09-18T21:00:23.900Z,99644.83
2022-09-18T21:02:56.983Z,99647.31
2022-09-18T21:05:29.057Z,99645.95
2022-09-18T21:08:03.851Z,99644.84
2022-09-18T21:10:46.724Z,99643.24
2022-09-18T21:13:20.099Z,99644.36
2022-09-18T21:15:52.665Z,99643.00
2022-09-18T21:18:24.695Z,99645.40
2022-09-18T21:21:05.722Z,99644.60
2022-09-18T21:23:58.535Z,99647.77
2022-09-18T21:26:33.225Z,99643.41
2022-09-18T21:29:04.898Z,99655.34
2022-09-18T21:31:42.764Z,99657.52
2022-09-18T21:34:17.036Z,99643.91
2022-09-18T21:36:49.180Z,99657.20
2022-09-18T21:39:21.615Z,99654.64
2022-09-18T21:41:53.659Z,99654.55
2022-09-18T21:44:27.969Z,99642.52
2022-09-18T21:47:02.109Z,99656.86
2022-09-18T21:49:36.322Z,99654.40
2022-09-18T21:52:09.300Z,99655.02
2022-09-18T21:54:41.362Z,99635.91
2022-09-18T21:57:14.128Z,99654.73
2022-09-18T21:59:46.563Z,99652.23
2022-09-18T22:02:20.582Z,99651.53
2022-09-18T22:04:55.089Z,99635.84
2022-09-18T22:07:27.560Z,99646.11
2022-09-18T22:09:59.650Z,99647.30
2022-09-18T22:12:32.894Z,99647.79
2022-09-18T22:15:05.268Z,99646.75
2022-09-18T22:17:38.363Z,99647.63
2022-09-18T22:20:11.171Z,99646.89
2022-09-18T22:22:43.823Z,99649.27
2022-09-18T22:25:16.028Z,99649.19
2022-09-18T22:27:48.794Z,99645.05
2022-09-18T22:30:21.296Z,99649.03
2022-09-18T22:32:53.451Z,99650.47
2022-09-18T22:35:25.459Z,99656.35
2022-09-18T22:37:57.986Z,99657.53
2022-09-18T22:40:30.193Z,99662.63
2022-09-18T22:43:02.294Z,99659.68
2022-09-18T22:45:34.413Z,99650.63
2022-09-18T22:48:06.641Z,99654.38
2022-09-18T22:50:38.566Z,99650.95
2022-09-18T22:53:10.790Z,99650.31
2022-09-18T22:55:43.277Z,99655.80
2022-09-18T22:58:15.757Z,99656.52
2022-09-18T23:00:48.894Z,99657.71
2022-09-18T23:03:21.239Z,99660.95
2022-09-18T23:05:53.264Z,99659.46
2022-09-18T23:08:25.275Z,99662.71
2022-09-18T23:10:57.356Z,99661.85
2022-09-18T23:13:29.317Z,99660.73
2022-09-18T23:16:04.072Z,99657.21
2022-09-18T23:18:36.572Z,99661.20
2022-09-18T23:21:11.543Z,99661.57
2022-09-18T23:23:47.151Z,99664.02
2022-09-18T23:26:23.273Z,99660.50
2022-09-18T23:28:57.751Z,99661.48
2022-09-18T23:31:31.650Z,99660.93
2022-09-18T23:34:06.373Z,99661.02
2022-09-18T23:36:37.952Z,99664.44
2022-09-18T23:39:13.222Z,99664.83
2022-09-18T23:41:46.366Z,99662.84
2022-09-18T23:44:20.405Z,99661.42
2022-09-18T23:46:52.940Z,99662.98
2022-09-18T23:49:24.960Z,99661.00
2022-09-18T23:51:57.362Z,99660.75
2022-09-18T23:54:31.241Z,99662.19
2022-09-18T23:57:03.239Z,99659.86
2022-09-18T23:59:35.763Z,99665.59
